Southeast Texas Regional Airport
KBPT : now visible

Airfield :











YOU CAN JOIN US ON...

 
LOGIN :

Register | Disclaimer

   EN    FR    IT 

 









Legend :    VFR   Marginal VFR   IFR   Intensive IFR   Very Intensive IFR
Visi :
Ceiling :
>= 8 km
>= 3000ft
5 to 8 km
1000 to 3000 ft
1500m to 5 km
500 to 1000 ft
800 to 1500m
200 to 500 ft
< 800m
< 200 ft
Symbols :   Thunderstorms  Fog  Heavy snow  Heavy precipitations  Wind > 20 kt







- Airport Elevation : 15 ft
- IATA code : BPT


KBPT - Southeast Texas Regional

CURRENT METAR :
  • 252353Z 32011KT 10SM CLR 26/13 A2984 RMK AO2 SLP104 T02610133 10283 20256 53012

EXPIRED METARs :
  • 252253Z 29007G16KT 10SM CLR 27/13 A2982 RMK AO2 SLP098 T02720128
  • 252153Z 30009G19KT 10SM CLR 28/13 A2980 RMK AO2 SLP092 T02780133

TAF KBPT
Valid from the 26 at 00:00 until the 27 at 00:00 UTC


252335Z 2600/2624 30007G16KT P6SM FEW050
FM260100 32004KT P6SM SKC
FM261400 36010KT P6SM SCT035
KZHU FIR / North America



MET'MAP, your aeronautical weather chart ! - Copyright ORBIFLY December 2007 - Disclaimer

ORBIFLY MET'MAP TEAM :

Programming & Development : Alexandra Zaïnal
Concept & Development : Baudouin d'Aumeries
Co-Development & Prog : Marc-Olivier Méhu
Technical & hardware support : Manuel Goepfert

Contact : metmap@orbifly.com




SOURCES & CREDITS :

   NOAA       Earth
Advisory